sensor_id;sensor_type;location;lat;lon;timestamp;temperature;humidity
18392;DHT22;9322;50.932;5.318;2022-08-19T00:01:24;18.90;99.90
18392;DHT22;9322;50.932;5.318;2022-08-19T00:03:50;18.90;99.90
18392;DHT22;9322;50.932;5.318;2022-08-19T00:06:16;18.80;99.90
18392;DHT22;9322;50.932;5.318;2022-08-19T00:08:42;18.70;99.90
18392;DHT22;9322;50.932;5.318;2022-08-19T00:11:08;18.70;99.90
18392;DHT22;9322;50.932;5.318;2022-08-19T00:13:34;18.70;99.90
18392;DHT22;9322;50.932;5.318;2022-08-19T00:16:01;18.70;99.90
18392;DHT22;9322;50.932;5.318;2022-08-19T00:18:27;18.60;99.90
18392;DHT22;9322;50.932;5.318;2022-08-19T00:20:53;18.70;99.90
18392;DHT22;9322;50.932;5.318;2022-08-19T00:23:18;18.70;99.90
18392;DHT22;9322;50.932;5.318;2022-08-19T00:25:44;18.60;99.90
18392;DHT22;9322;50.932;5.318;2022-08-19T00:28:10;18.60;99.90
18392;DHT22;9322;50.932;5.318;2022-08-19T00:30:36;18.60;99.90
18392;DHT22;9322;50.932;5.318;2022-08-19T00:33:02;18.50;99.90
18392;DHT22;9322;50.932;5.318;2022-08-19T00:35:28;18.50;99.90
18392;DHT22;9322;50.932;5.318;2022-08-19T00:37:54;18.50;99.90
18392;DHT22;9322;50.932;5.318;2022-08-19T00:40:20;18.40;99.90
18392;DHT22;9322;50.932;5.318;2022-08-19T00:42:47;18.40;99.90
18392;DHT22;9322;50.932;5.318;2022-08-19T00:45:19;18.40;99.90
18392;DHT22;9322;50.932;5.318;2022-08-19T00:47:46;18.40;99.90
18392;DHT22;9322;50.932;5.318;2022-08-19T00:50:15;18.30;99.90
18392;DHT22;9322;50.932;5.318;2022-08-19T00:52:46;18.30;99.90
18392;DHT22;9322;50.932;5.318;2022-08-19T00:55:22;18.20;99.90
18392;DHT22;9322;50.932;5.318;2022-08-19T00:57:53;18.20;99.90
18392;DHT22;9322;50.932;5.318;2022-08-19T01:00:21;18.20;99.90
18392;DHT22;9322;50.932;5.318;2022-08-19T01:02:47;18.30;99.90
18392;DHT22;9322;50.932;5.318;2022-08-19T01:05:17;18.30;99.90
18392;DHT22;9322;50.932;5.318;2022-08-19T01:07:47;18.20;99.90
18392;DHT22;9322;50.932;5.318;2022-08-19T01:10:17;18.20;99.90
18392;DHT22;9322;50.932;5.318;2022-08-19T01:12:45;18.20;99.90
18392;DHT22;9322;50.932;5.318;2022-08-19T01:15:14;18.20;99.90
18392;DHT22;9322;50.932;5.318;2022-08-19T01:17:41;18.20;99.90
18392;DHT22;9322;50.932;5.318;2022-08-19T01:20:13;18.20;99.90
18392;DHT22;9322;50.932;5.318;2022-08-19T01:22:49;18.20;99.90
18392;DHT22;9322;50.932;5.318;2022-08-19T01:25:19;18.20;99.90
18392;DHT22;9322;50.932;5.318;2022-08-19T01:27:47;18.10;99.90
18392;DHT22;9322;50.932;5.318;2022-08-19T01:30:19;18.10;99.90
18392;DHT22;9322;50.932;5.318;2022-08-19T01:32:45;18.00;99.90
18392;DHT22;9322;50.932;5.318;2022-08-19T01:35:12;18.10;99.90
18392;DHT22;9322;50.932;5.318;2022-08-19T01:37:54;18.00;99.90
18392;DHT22;9322;50.932;5.318;2022-08-19T01:40:23;18.10;99.90
18392;DHT22;9322;50.932;5.318;2022-08-19T01:42:51;18.00;99.90
18392;DHT22;9322;50.932;5.318;2022-08-19T01:45:19;18.10;99.90
18392;DHT22;9322;50.932;5.318;2022-08-19T01:47:46;18.10;99.90
18392;DHT22;9322;50.932;5.318;2022-08-19T01:50:12;18.00;99.90
18392;DHT22;9322;50.932;5.318;2022-08-19T01:52:40;18.00;99.90
18392;DHT22;9322;50.932;5.318;2022-08-19T01:55:09;18.00;99.90
18392;DHT22;9322;50.932;5.318;2022-08-19T01:57:35;18.00;99.90
18392;DHT22;9322;50.932;5.318;2022-08-19T02:00:06;18.00;99.90
18392;DHT22;9322;50.932;5.318;2022-08-19T02:02:32;18.00;99.90
18392;DHT22;9322;50.932;5.318;2022-08-19T02:04:58;18.00;99.90
18392;DHT22;9322;50.932;5.318;2022-08-19T02:07:24;18.00;99.90
18392;DHT22;9322;50.932;5.318;2022-08-19T02:09:50;18.00;99.90
18392;DHT22;9322;50.932;5.318;2022-08-19T02:12:16;17.90;99.90
18392;DHT22;9322;50.932;5.318;2022-08-19T02:14:42;17.90;99.90
18392;DHT22;9322;50.932;5.318;2022-08-19T02:17:08;17.90;99.90
18392;DHT22;9322;50.932;5.318;2022-08-19T02:19:34;17.90;99.90
18392;DHT22;9322;50.932;5.318;2022-08-19T02:22:00;17.90;99.90
18392;DHT22;9322;50.932;5.318;2022-08-19T02:24:26;17.80;99.90
18392;DHT22;9322;50.932;5.318;2022-08-19T02:26:52;17.70;99.90
18392;DHT22;9322;50.932;5.318;2022-08-19T02:29:18;17.70;99.90
18392;DHT22;9322;50.932;5.318;2022-08-19T02:31:44;17.70;99.90
18392;DHT22;9322;50.932;5.318;2022-08-19T02:34:09;17.70;99.90
18392;DHT22;9322;50.932;5.318;2022-08-19T02:36:35;17.70;99.90
18392;DHT22;9322;50.932;5.318;2022-08-19T02:39:01;17.70;99.90
18392;DHT22;9322;50.932;5.318;2022-08-19T02:41:30;17.70;99.90
18392;DHT22;9322;50.932;5.318;2022-08-19T02:43:57;17.70;99.90
18392;DHT22;9322;50.932;5.318;2022-08-19T02:46:25;17.70;99.90
18392;DHT22;9322;50.932;5.318;2022-08-19T02:48:53;17.60;99.90
18392;DHT22;9322;50.932;5.318;2022-08-19T02:51:31;17.60;99.90
18392;DHT22;9322;50.932;5.318;2022-08-19T02:53:57;17.50;99.90
18392;DHT22;9322;50.932;5.318;2022-08-19T02:56:25;17.50;99.90
18392;DHT22;9322;50.932;5.318;2022-08-19T02:58:53;17.50;99.90
18392;DHT22;9322;50.932;5.318;2022-08-19T03:01:31;17.50;99.90
18392;DHT22;9322;50.932;5.318;2022-08-19T03:03:59;17.50;99.90
18392;DHT22;9322;50.932;5.318;2022-08-19T03:06:25;17.50;99.90
18392;DHT22;9322;50.932;5.318;2022-08-19T03:08:52;17.40;99.90
18392;DHT22;9322;50.932;5.318;2022-08-19T03:11:24;17.40;99.90
18392;DHT22;9322;50.932;5.318;2022-08-19T03:13:50;17.40;99.90
18392;DHT22;9322;50.932;5.318;2022-08-19T03:16:17;17.40;99.90
18392;DHT22;9322;50.932;5.318;2022-08-19T03:18:44;17.50;99.90
18392;DHT22;9322;50.932;5.318;2022-08-19T03:21:16;17.50;99.90
18392;DHT22;9322;50.932;5.318;2022-08-19T03:23:42;17.50;99.90
18392;DHT22;9322;50.932;5.318;2022-08-19T03:26:07;17.50;99.90
18392;DHT22;9322;50.932;5.318;2022-08-19T03:28:33;17.50;99.90
18392;DHT22;9322;50.932;5.318;2022-08-19T03:31:12;17.40;99.90
18392;DHT22;9322;50.932;5.318;2022-08-19T03:33:39;17.40;99.90
18392;DHT22;9322;50.932;5.318;2022-08-19T03:36:07;17.40;99.90
18392;DHT22;9322;50.932;5.318;2022-08-19T03:38:35;17.40;99.90
18392;DHT22;9322;50.932;5.318;2022-08-19T03:41:11;17.30;99.90
18392;DHT22;9322;50.932;5.318;2022-08-19T03:43:38;17.30;99.90
18392;DHT22;9322;50.932;5.318;2022-08-19T03:46:07;17.30;99.90
18392;DHT22;9322;50.932;5.318;2022-08-19T03:48:34;17.20;99.90
18392;DHT22;9322;50.932;5.318;2022-08-19T03:51:02;17.30;99.90
18392;DHT22;9322;50.932;5.318;2022-08-19T03:53:30;17.30;99.90
18392;DHT22;9322;50.932;5.318;2022-08-19T03:55:56;17.20;99.90
18392;DHT22;9322;50.932;5.318;2022-08-19T03:58:26;17.20;99.90
18392;DHT22;9322;50.932;5.318;2022-08-19T04:00:55;17.20;99.90
18392;DHT22;9322;50.932;5.318;2022-08-19T04:03:21;17.20;99.90
18392;DHT22;9322;50.932;5.318;2022-08-19T04:05:46;17.20;99.90
18392;DHT22;9322;50.932;5.318;2022-08-19T04:08:14;17.20;99.90
18392;DHT22;9322;50.932;5.318;2022-08-19T04:10:46;17.20;99.90
18392;DHT22;9322;50.932;5.318;2022-08-19T04:13:14;17.10;99.90
18392;DHT22;9322;50.932;5.318;2022-08-19T04:15:44;17.10;99.90
18392;DHT22;9322;50.932;5.318;2022-08-19T04:18:12;17.10;99.90
18392;DHT22;9322;50.932;5.318;2022-08-19T04:20:43;17.00;99.90
18392;DHT22;9322;50.932;5.318;2022-08-19T04:23:09;17.00;99.90
18392;DHT22;9322;50.932;5.318;2022-08-19T04:25:42;17.00;99.90
18392;DHT22;9322;50.932;5.318;2022-08-19T04:28:10;17.00;99.90
18392;DHT22;9322;50.932;5.318;2022-08-19T04:30:43;16.90;99.90
18392;DHT22;9322;50.932;5.318;2022-08-19T04:33:11;16.90;99.90
18392;DHT22;9322;50.932;5.318;2022-08-19T04:35:41;16.90;99.90
18392;DHT22;9322;50.932;5.318;2022-08-19T04:38:08;17.00;99.90
18392;DHT22;9322;50.932;5.318;2022-08-19T04:40:40;16.90;99.90
18392;DHT22;9322;50.932;5.318;2022-08-19T04:43:25;17.00;99.90
18392;DHT22;9322;50.932;5.318;2022-08-19T04:45:51;17.00;99.90
18392;DHT22;9322;50.932;5.318;2022-08-19T04:48:17;17.00;99.90
18392;DHT22;9322;50.932;5.318;2022-08-19T04:50:52;17.00;99.90
18392;DHT22;9322;50.932;5.318;2022-08-19T04:53:27;17.10;99.90
18392;DHT22;9322;50.932;5.318;2022-08-19T04:55:55;17.10;99.90
18392;DHT22;9322;50.932;5.318;2022-08-19T04:58:22;17.10;99.90
18392;DHT22;9322;50.932;5.318;2022-08-19T05:00:48;17.20;99.90
18392;DHT22;9322;50.932;5.318;2022-08-19T05:03:14;17.20;99.90
18392;DHT22;9322;50.932;5.318;2022-08-19T05:05:44;17.30;99.90
18392;DHT22;9322;50.932;5.318;2022-08-19T05:08:11;17.30;99.90
18392;DHT22;9322;50.932;5.318;2022-08-19T05:10:38;17.30;99.90
18392;DHT22;9322;50.932;5.318;2022-08-19T05:13:04;17.30;99.90
18392;DHT22;9322;50.932;5.318;2022-08-19T05:15:30;17.40;99.90
18392;DHT22;9322;50.932;5.318;2022-08-19T05:17:55;17.60;99.90
18392;DHT22;9322;50.932;5.318;2022-08-19T05:20:39;17.60;99.90
18392;DHT22;9322;50.932;5.318;2022-08-19T05:23:23;17.60;99.90
18392;DHT22;9322;50.932;5.318;2022-08-19T05:25:50;17.70;99.90
18392;DHT22;9322;50.932;5.318;2022-08-19T05:28:17;17.70;99.90
18392;DHT22;9322;50.932;5.318;2022-08-19T05:30:44;17.80;99.90
18392;DHT22;9322;50.932;5.318;2022-08-19T05:33:11;17.80;99.90
18392;DHT22;9322;50.932;5.318;2022-08-19T05:35:40;17.80;99.90
18392;DHT22;9322;50.932;5.318;2022-08-19T05:38:07;18.00;99.90
18392;DHT22;9322;50.932;5.318;2022-08-19T05:40:38;18.20;99.90
18392;DHT22;9322;50.932;5.318;2022-08-19T05:43:07;18.50;99.90
18392;DHT22;9322;50.932;5.318;2022-08-19T05:45:37;18.90;99.90
18392;DHT22;9322;50.932;5.318;2022-08-19T05:48:03;19.60;99.90
18392;DHT22;9322;50.932;5.318;2022-08-19T05:50:29;19.90;99.90
18392;DHT22;9322;50.932;5.318;2022-08-19T05:52:55;19.70;99.90
18392;DHT22;9322;50.932;5.318;2022-08-19T05:55:21;20.20;99.90
18392;DHT22;9322;50.932;5.318;2022-08-19T05:57:47;21.00;99.90
18392;DHT22;9322;50.932;5.318;2022-08-19T06:00:13;21.30;99.90
18392;DHT22;9322;50.932;5.318;2022-08-19T06:02:40;21.50;99.90
18392;DHT22;9322;50.932;5.318;2022-08-19T06:05:07;21.80;99.90
18392;DHT22;9322;50.932;5.318;2022-08-19T06:07:35;22.50;99.90
18392;DHT22;9322;50.932;5.318;2022-08-19T06:10:01;23.20;99.90
18392;DHT22;9322;50.932;5.318;2022-08-19T06:12:31;22.90;99.90
18392;DHT22;9322;50.932;5.318;2022-08-19T06:15:05;22.90;99.90
18392;DHT22;9322;50.932;5.318;2022-08-19T06:17:32;23.00;99.90
18392;DHT22;9322;50.932;5.318;2022-08-19T06:20:00;23.20;99.90
18392;DHT22;9322;50.932;5.318;2022-08-19T06:22:26;22.60;99.90
18392;DHT22;9322;50.932;5.318;2022-08-19T06:24:52;22.80;99.90
18392;DHT22;9322;50.932;5.318;2022-08-19T06:27:19;22.10;99.90
18392;DHT22;9322;50.932;5.318;2022-08-19T06:29:45;22.10;99.90
18392;DHT22;9322;50.932;5.318;2022-08-19T06:32:14;21.70;99.90
18392;DHT22;9322;50.932;5.318;2022-08-19T06:34:40;22.00;99.90
18392;DHT22;9322;50.932;5.318;2022-08-19T06:37:06;22.60;99.90
18392;DHT22;9322;50.932;5.318;2022-08-19T06:39:35;23.30;99.90
18392;DHT22;9322;50.932;5.318;2022-08-19T06:42:03;23.90;99.90
18392;DHT22;9322;50.932;5.318;2022-08-19T06:44:33;24.80;92.20
18392;DHT22;9322;50.932;5.318;2022-08-19T06:47:02;25.00;90.40
18392;DHT22;9322;50.932;5.318;2022-08-19T06:49:28;25.60;85.90
18392;DHT22;9322;50.932;5.318;2022-08-19T06:51:56;25.70;82.60
18392;DHT22;9322;50.932;5.318;2022-08-19T06:54:22;25.00;90.50
18392;DHT22;9322;50.932;5.318;2022-08-19T06:56:48;25.00;87.50
18392;DHT22;9322;50.932;5.318;2022-08-19T06:59:17;25.10;89.70
18392;DHT22;9322;50.932;5.318;2022-08-19T07:01:50;25.40;87.60
18392;DHT22;9322;50.932;5.318;2022-08-19T07:04:19;25.50;84.80
18392;DHT22;9322;50.932;5.318;2022-08-19T07:06:45;25.80;82.90
18392;DHT22;9322;50.932;5.318;2022-08-19T07:09:14;25.60;85.60
18392;DHT22;9322;50.932;5.318;2022-08-19T07:11:48;25.10;89.10
18392;DHT22;9322;50.932;5.318;2022-08-19T07:14:15;25.10;88.00
18392;DHT22;9322;50.932;5.318;2022-08-19T07:16:44;25.00;89.80
18392;DHT22;9322;50.932;5.318;2022-08-19T07:19:12;25.00;89.90
18392;DHT22;9322;50.932;5.318;2022-08-19T07:21:38;25.00;90.00
18392;DHT22;9322;50.932;5.318;2022-08-19T07:24:04;24.40;94.90
18392;DHT22;9322;50.932;5.318;2022-08-19T07:26:32;24.10;95.40
18392;DHT22;9322;50.932;5.318;2022-08-19T07:28:58;23.60;99.90
18392;DHT22;9322;50.932;5.318;2022-08-19T07:31:27;23.60;99.90
18392;DHT22;9322;50.932;5.318;2022-08-19T07:33:54;23.70;99.90
18392;DHT22;9322;50.932;5.318;2022-08-19T07:36:24;23.70;99.90
18392;DHT22;9322;50.932;5.318;2022-08-19T07:38:51;23.70;99.90
18392;DHT22;9322;50.932;5.318;2022-08-19T07:41:22;23.90;97.90
18392;DHT22;9322;50.932;5.318;2022-08-19T07:43:49;23.70;99.90
18392;DHT22;9322;50.932;5.318;2022-08-19T07:46:15;23.70;99.80
18392;DHT22;9322;50.932;5.318;2022-08-19T07:48:43;23.70;98.90
18392;DHT22;9322;50.932;5.318;2022-08-19T07:51:16;23.30;99.90
18392;DHT22;9322;50.932;5.318;2022-08-19T07:53:42;23.30;99.90
18392;DHT22;9322;50.932;5.318;2022-08-19T07:56:10;23.90;99.90
18392;DHT22;9322;50.932;5.318;2022-08-19T07:58:38;24.30;96.70
18392;DHT22;9322;50.932;5.318;2022-08-19T08:01:06;23.60;99.90
18392;DHT22;9322;50.932;5.318;2022-08-19T08:03:33;23.20;99.90
18392;DHT22;9322;50.932;5.318;2022-08-19T08:06:17;23.40;99.90
18392;DHT22;9322;50.932;5.318;2022-08-19T08:09:04;23.30;99.90
18392;DHT22;9322;50.932;5.318;2022-08-19T08:11:41;23.60;99.90
18392;DHT22;9322;50.932;5.318;2022-08-19T08:14:08;23.30;99.90
18392;DHT22;9322;50.932;5.318;2022-08-19T08:16:38;23.00;99.90
18392;DHT22;9322;50.932;5.318;2022-08-19T08:19:05;23.30;99.90
18392;DHT22;9322;50.932;5.318;2022-08-19T08:21:32;23.60;99.90
18392;DHT22;9322;50.932;5.318;2022-08-19T08:23:58;24.00;98.50
18392;DHT22;9322;50.932;5.318;2022-08-19T08:26:24;23.90;99.90
18392;DHT22;9322;50.932;5.318;2022-08-19T08:28:51;23.60;99.90
18392;DHT22;9322;50.932;5.318;2022-08-19T08:31:17;23.60;99.90
18392;DHT22;9322;50.932;5.318;2022-08-19T08:33:44;23.70;99.90
18392;DHT22;9322;50.932;5.318;2022-08-19T08:36:11;23.50;99.90
18392;DHT22;9322;50.932;5.318;2022-08-19T08:38:39;23.90;97.80
18392;DHT22;9322;50.932;5.318;2022-08-19T08:44:40;25.40;89.20
18392;DHT22;9322;50.932;5.318;2022-08-19T08:47:15;27.30;70.90
18392;DHT22;9322;50.932;5.318;2022-08-19T08:49:56;28.30;63.60
18392;DHT22;9322;50.932;5.318;2022-08-19T08:52:31;27.90;62.20
18392;DHT22;9322;50.932;5.318;2022-08-19T08:55:06;28.20;60.80
18392;DHT22;9322;50.932;5.318;2022-08-19T09:00:17;27.50;61.80
18392;DHT22;9322;50.932;5.318;2022-08-19T09:02:43;28.00;62.00
18392;DHT22;9322;50.932;5.318;2022-08-19T09:05:10;28.70;58.00
18392;DHT22;9322;50.932;5.318;2022-08-19T09:08:03;29.80;55.70
18392;DHT22;9322;50.932;5.318;2022-08-19T09:15:38;33.30;45.80
18392;DHT22;9322;50.932;5.318;2022-08-19T09:18:04;31.90;47.30
18392;DHT22;9322;50.932;5.318;2022-08-19T09:20:32;29.80;52.90
18392;DHT22;9322;50.932;5.318;2022-08-19T09:22:57;30.20;52.30
18392;DHT22;9322;50.932;5.318;2022-08-19T09:25:24;30.40;51.70
18392;DHT22;9322;50.932;5.318;2022-08-19T09:27:51;29.90;51.90
18392;DHT22;9322;50.932;5.318;2022-08-19T09:30:30;30.60;50.30
18392;DHT22;9322;50.932;5.318;2022-08-19T09:32:56;31.50;49.80
18392;DHT22;9322;50.932;5.318;2022-08-19T09:35:24;33.90;44.60
18392;DHT22;9322;50.932;5.318;2022-08-19T09:37:50;35.10;41.80
18392;DHT22;9322;50.932;5.318;2022-08-19T09:40:17;34.80;41.50
18392;DHT22;9322;50.932;5.318;2022-08-19T09:42:43;35.10;41.60
18392;DHT22;9322;50.932;5.318;2022-08-19T09:45:10;34.00;41.90
18392;DHT22;9322;50.932;5.318;2022-08-19T09:47:36;33.30;43.90
18392;DHT22;9322;50.932;5.318;2022-08-19T09:50:08;32.20;44.90
18392;DHT22;9322;50.932;5.318;2022-08-19T09:52:35;32.70;44.30
18392;DHT22;9322;50.932;5.318;2022-08-19T09:55:04;32.30;43.90
18392;DHT22;9322;50.932;5.318;2022-08-19T09:57:29;32.10;44.90
18392;DHT22;9322;50.932;5.318;2022-08-19T09:59:55;32.00;43.80
18392;DHT22;9322;50.932;5.318;2022-08-19T10:02:21;33.40;41.40
18392;DHT22;9322;50.932;5.318;2022-08-19T10:04:46;35.00;40.40
18392;DHT22;9322;50.932;5.318;2022-08-19T10:07:31;34.20;40.30
18392;DHT22;9322;50.932;5.318;2022-08-19T10:09:56;33.70;41.00
18392;DHT22;9322;50.932;5.318;2022-08-19T10:12:22;35.10;39.90
18392;DHT22;9322;50.932;5.318;2022-08-19T10:14:48;35.50;39.20
18392;DHT22;9322;50.932;5.318;2022-08-19T10:17:16;34.90;38.60
18392;DHT22;9322;50.932;5.318;2022-08-19T10:19:43;34.10;39.90
18392;DHT22;9322;50.932;5.318;2022-08-19T10:22:08;33.40;41.10
18392;DHT22;9322;50.932;5.318;2022-08-19T10:24:39;32.60;42.90
18392;DHT22;9322;50.932;5.318;2022-08-19T10:27:06;32.50;44.40
18392;DHT22;9322;50.932;5.318;2022-08-19T10:29:32;32.80;44.20
18392;DHT22;9322;50.932;5.318;2022-08-19T10:32:03;32.80;43.20
18392;DHT22;9322;50.932;5.318;2022-08-19T10:34:31;32.60;43.60
18392;DHT22;9322;50.932;5.318;2022-08-19T10:36:58;32.00;45.50
18392;DHT22;9322;50.932;5.318;2022-08-19T10:39:25;31.00;48.50
18392;DHT22;9322;50.932;5.318;2022-08-19T10:41:50;31.70;47.40
18392;DHT22;9322;50.932;5.318;2022-08-19T10:44:16;33.00;44.40
18392;DHT22;9322;50.932;5.318;2022-08-19T10:46:43;33.60;42.80
18392;DHT22;9322;50.932;5.318;2022-08-19T10:49:11;32.70;43.10
18392;DHT22;9322;50.932;5.318;2022-08-19T10:51:38;31.50;46.00
18392;DHT22;9322;50.932;5.318;2022-08-19T10:54:22;31.00;47.20
18392;DHT22;9322;50.932;5.318;2022-08-19T10:56:48;30.70;47.40
18392;DHT22;9322;50.932;5.318;2022-08-19T10:59:21;30.20;48.30
18392;DHT22;9322;50.932;5.318;2022-08-19T11:01:48;29.80;49.50
18392;DHT22;9322;50.932;5.318;2022-08-19T11:04:15;29.70;51.00
18392;DHT22;9322;50.932;5.318;2022-08-19T11:06:47;29.40;50.80
18392;DHT22;9322;50.932;5.318;2022-08-19T11:09:21;29.00;52.60
18392;DHT22;9322;50.932;5.318;2022-08-19T11:11:49;28.80;52.20
18392;DHT22;9322;50.932;5.318;2022-08-19T11:14:17;29.10;52.50
18392;DHT22;9322;50.932;5.318;2022-08-19T11:16:47;29.50;51.20
18392;DHT22;9322;50.932;5.318;2022-08-19T11:19:14;29.70;50.50
18392;DHT22;9322;50.932;5.318;2022-08-19T11:21:44;29.90;50.50
18392;DHT22;9322;50.932;5.318;2022-08-19T11:24:16;30.50;49.70
18392;DHT22;9322;50.932;5.318;2022-08-19T11:26:42;31.00;48.90
18392;DHT22;9322;50.932;5.318;2022-08-19T11:29:10;30.90;48.00
18392;DHT22;9322;50.932;5.318;2022-08-19T11:31:37;31.00;49.50
18392;DHT22;9322;50.932;5.318;2022-08-19T11:34:07;30.50;49.20
18392;DHT22;9322;50.932;5.318;2022-08-19T11:36:33;30.20;50.90
18392;DHT22;9322;50.932;5.318;2022-08-19T11:39:00;30.20;50.00
18392;DHT22;9322;50.932;5.318;2022-08-19T11:41:26;30.30;49.70
18392;DHT22;9322;50.932;5.318;2022-08-19T11:43:52;30.30;50.30
18392;DHT22;9322;50.932;5.318;2022-08-19T11:46:21;30.60;49.60
18392;DHT22;9322;50.932;5.318;2022-08-19T11:48:49;30.60;49.90
18392;DHT22;9322;50.932;5.318;2022-08-19T11:51:19;30.40;50.30
18392;DHT22;9322;50.932;5.318;2022-08-19T11:53:45;30.90;49.60
18392;DHT22;9322;50.932;5.318;2022-08-19T11:56:11;30.70;49.40
18392;DHT22;9322;50.932;5.318;2022-08-19T11:58:38;30.40;50.50
18392;DHT22;9322;50.932;5.318;2022-08-19T12:01:08;30.00;51.90
18392;DHT22;9322;50.932;5.318;2022-08-19T12:03:36;29.70;52.90
18392;DHT22;9322;50.932;5.318;2022-08-19T12:06:10;29.60;53.30
18392;DHT22;9322;50.932;5.318;2022-08-19T12:08:38;29.60;54.40
18392;DHT22;9322;50.932;5.318;2022-08-19T12:11:04;29.60;53.70
18392;DHT22;9322;50.932;5.318;2022-08-19T12:13:31;29.50;53.50
18392;DHT22;9322;50.932;5.318;2022-08-19T12:15:57;29.30;54.90
18392;DHT22;9322;50.932;5.318;2022-08-19T12:18:23;29.30;54.00
18392;DHT22;9322;50.932;5.318;2022-08-19T12:20:51;29.10;56.20
18392;DHT22;9322;50.932;5.318;2022-08-19T12:23:17;29.20;56.00
18392;DHT22;9322;50.932;5.318;2022-08-19T12:25:45;29.70;52.70
18392;DHT22;9322;50.932;5.318;2022-08-19T12:28:22;30.00;53.70
18392;DHT22;9322;50.932;5.318;2022-08-19T12:30:49;30.40;52.40
18392;DHT22;9322;50.932;5.318;2022-08-19T12:33:16;30.10;52.60
18392;DHT22;9322;50.932;5.318;2022-08-19T12:35:43;29.90;52.40
18392;DHT22;9322;50.932;5.318;2022-08-19T12:38:10;29.30;54.20
18392;DHT22;9322;50.932;5.318;2022-08-19T12:40:36;28.90;55.40
18392;DHT22;9322;50.932;5.318;2022-08-19T12:43:03;28.70;57.30
18392;DHT22;9322;50.932;5.318;2022-08-19T12:45:29;27.90;58.50
18392;DHT22;9322;50.932;5.318;2022-08-19T12:47:55;28.10;58.20
18392;DHT22;9322;50.932;5.318;2022-08-19T12:50:20;28.00;58.50
18392;DHT22;9322;50.932;5.318;2022-08-19T12:52:47;27.90;59.30
18392;DHT22;9322;50.932;5.318;2022-08-19T12:55:13;28.00;59.50
18392;DHT22;9322;50.932;5.318;2022-08-19T12:57:39;28.10;60.20
18392;DHT22;9322;50.932;5.318;2022-08-19T13:00:06;28.30;58.80
18392;DHT22;9322;50.932;5.318;2022-08-19T13:02:36;28.40;59.10
18392;DHT22;9322;50.932;5.318;2022-08-19T13:05:03;28.70;56.90
18392;DHT22;9322;50.932;5.318;2022-08-19T13:07:30;28.70;56.60
18392;DHT22;9322;50.932;5.318;2022-08-19T13:09:56;28.50;57.30
18392;DHT22;9322;50.932;5.318;2022-08-19T13:12:22;28.60;56.50
18392;DHT22;9322;50.932;5.318;2022-08-19T13:14:54;28.40;57.80
18392;DHT22;9322;50.932;5.318;2022-08-19T13:17:20;28.50;57.70
18392;DHT22;9322;50.932;5.318;2022-08-19T13:19:46;28.30;58.50
18392;DHT22;9322;50.932;5.318;2022-08-19T13:22:11;28.20;58.70
18392;DHT22;9322;50.932;5.318;2022-08-19T13:24:37;28.10;60.20
18392;DHT22;9322;50.932;5.318;2022-08-19T13:27:04;28.00;60.20
18392;DHT22;9322;50.932;5.318;2022-08-19T13:29:29;27.80;61.60
18392;DHT22;9322;50.932;5.318;2022-08-19T13:32:13;27.70;62.30
18392;DHT22;9322;50.932;5.318;2022-08-19T13:34:57;27.50;64.40
18392;DHT22;9322;50.932;5.318;2022-08-19T13:37:23;27.50;63.20
18392;DHT22;9322;50.932;5.318;2022-08-19T13:40:10;27.50;63.90
18392;DHT22;9322;50.932;5.318;2022-08-19T13:42:42;27.60;63.70
18392;DHT22;9322;50.932;5.318;2022-08-19T13:45:10;27.60;65.40
18392;DHT22;9322;50.932;5.318;2022-08-19T13:47:36;27.60;64.10
18392;DHT22;9322;50.932;5.318;2022-08-19T13:50:09;27.50;65.00
18392;DHT22;9322;50.932;5.318;2022-08-19T13:52:36;27.60;65.00
18392;DHT22;9322;50.932;5.318;2022-08-19T13:55:02;27.50;65.50
18392;DHT22;9322;50.932;5.318;2022-08-19T13:57:30;27.90;63.30
18392;DHT22;9322;50.932;5.318;2022-08-19T13:59:57;27.80;63.50
18392;DHT22;9322;50.932;5.318;2022-08-19T14:02:23;28.10;62.90
18392;DHT22;9322;50.932;5.318;2022-08-19T14:04:49;27.90;62.40
18392;DHT22;9322;50.932;5.318;2022-08-19T14:07:15;27.60;64.90
18392;DHT22;9322;50.932;5.318;2022-08-19T14:09:41;27.70;63.10
18392;DHT22;9322;50.932;5.318;2022-08-19T14:12:07;28.20;63.60
18392;DHT22;9322;50.932;5.318;2022-08-19T14:14:36;28.40;62.30
18392;DHT22;9322;50.932;5.318;2022-08-19T14:17:06;28.60;60.50
18392;DHT22;9322;50.932;5.318;2022-08-19T14:19:32;28.20;61.10
18392;DHT22;9322;50.932;5.318;2022-08-19T14:21:58;28.60;60.80
18392;DHT22;9322;50.932;5.318;2022-08-19T14:24:23;29.00;59.10
18392;DHT22;9322;50.932;5.318;2022-08-19T14:26:49;29.10;57.90
18392;DHT22;9322;50.932;5.318;2022-08-19T14:29:15;29.10;57.80
18392;DHT22;9322;50.932;5.318;2022-08-19T14:31:41;28.70;59.00
18392;DHT22;9322;50.932;5.318;2022-08-19T14:34:09;28.70;58.50
18392;DHT22;9322;50.932;5.318;2022-08-19T14:36:36;28.40;59.50
18392;DHT22;9322;50.932;5.318;2022-08-19T14:39:03;27.60;62.40
18392;DHT22;9322;50.932;5.318;2022-08-19T14:41:28;27.60;61.10
18392;DHT22;9322;50.932;5.318;2022-08-19T14:43:55;27.40;61.60
18392;DHT22;9322;50.932;5.318;2022-08-19T14:46:24;27.40;63.50
18392;DHT22;9322;50.932;5.318;2022-08-19T14:48:51;27.60;60.90
18392;DHT22;9322;50.932;5.318;2022-08-19T14:51:17;28.00;61.20
18392;DHT22;9322;50.932;5.318;2022-08-19T14:53:43;28.00;61.30
18392;DHT22;9322;50.932;5.318;2022-08-19T14:56:13;27.90;60.10
18392;DHT22;9322;50.932;5.318;2022-08-19T14:58:40;28.00;60.20
18392;DHT22;9322;50.932;5.318;2022-08-19T15:01:06;27.80;60.30
18392;DHT22;9322;50.932;5.318;2022-08-19T15:03:33;27.80;60.60
18392;DHT22;9322;50.932;5.318;2022-08-19T15:06:00;27.50;62.20
18392;DHT22;9322;50.932;5.318;2022-08-19T15:08:28;27.30;63.40
18392;DHT22;9322;50.932;5.318;2022-08-19T15:10:54;27.30;64.40
18392;DHT22;9322;50.932;5.318;2022-08-19T15:13:20;27.50;62.40
18392;DHT22;9322;50.932;5.318;2022-08-19T15:15:47;27.60;62.50
18392;DHT22;9322;50.932;5.318;2022-08-19T15:18:13;27.60;63.30
18392;DHT22;9322;50.932;5.318;2022-08-19T15:20:40;27.60;62.40
18392;DHT22;9322;50.932;5.318;2022-08-19T15:23:06;27.50;62.40
18392;DHT22;9322;50.932;5.318;2022-08-19T15:25:31;27.40;62.30
18392;DHT22;9322;50.932;5.318;2022-08-19T15:27:58;27.30;63.00
18392;DHT22;9322;50.932;5.318;2022-08-19T15:30:27;27.40;63.30
18392;DHT22;9322;50.932;5.318;2022-08-19T15:32:54;27.30;63.80
18392;DHT22;9322;50.932;5.318;2022-08-19T15:35:20;27.20;65.70
18392;DHT22;9322;50.932;5.318;2022-08-19T15:37:52;27.10;65.60
18392;DHT22;9322;50.932;5.318;2022-08-19T15:40:19;27.10;65.80
18392;DHT22;9322;50.932;5.318;2022-08-19T15:42:44;27.20;67.60
18392;DHT22;9322;50.932;5.318;2022-08-19T15:45:13;27.10;72.80
18392;DHT22;9322;50.932;5.318;2022-08-19T15:47:39;26.70;77.10
18392;DHT22;9322;50.932;5.318;2022-08-19T15:52:31;26.60;82.30
18392;DHT22;9322;50.932;5.318;2022-08-19T15:54:56;26.90;82.80
18392;DHT22;9322;50.932;5.318;2022-08-19T15:57:22;26.80;79.60
18392;DHT22;9322;50.932;5.318;2022-08-19T15:59:50;26.60;82.20
18392;DHT22;9322;50.932;5.318;2022-08-19T16:02:35;26.80;83.90
18392;DHT22;9322;50.932;5.318;2022-08-19T16:05:23;27.10;85.60